Jena Marie C. — WDD4969 — position and weather

sailwx.info

Track history (hours):
 
Tides and Currents Weather Stations Pressure Air Temp Water Temp Dewpoint Dewpoint Depression Visibility Wind Speed Wind Dir Waves Ship Positions

Jena Marie C.

Owner: Scott C. Marine Towing, LLC, Marrero, LA. More information available from US FCC via Universal Licensing System and Coast Guard Vessel Documentation Center.

Last reported at 2015-May-24 02:13 UTC. Time now 2015-May-24 05:11 UTC.
Position N 29°54' W 090°07'.

Length 19 m; draft 2.5 m.

Type: Towing. MMSI: 367151880.

Date/timePositionNaut miles runAvg speedWind from/ knotsBaromVisibWave heightAir tempDewpointWater temp
2015-May-24 02:13N 29°54' W 090°07'0 0.0
2015-May-24 01:07N 29°54' W 090°07'0 0.0
2015-May-24 00:32N 29°54' W 090°07'0 0.0
2015-May-23 23:15N 29°54' W 090°07'0 0.0
2015-May-23 22:16N 29°54' W 090°07'0 0.0
2015-May-23 21:13N 29°54' W 090°07'0 0.0
2015-May-23 20:33N 29°54' W 090°07'0 0.0
2015-May-23 19:28N 29°54' W 090°07'0 0.0
2015-May-23 18:22N 29°54' W 090°07'0 0.0
2015-May-23 17:33N 29°54' W 090°07'0 0.0
2015-May-23 16:33N 29°54' W 090°07'0 0.0
2015-May-23 15:33N 29°54' W 090°07'0 0.0
2015-May-23 14:30N 29°54' W 090°07'0 0.0
2015-May-23 13:26N 29°54' W 090°07'0 0.0
2015-May-23 12:30N 29°54' W 090°07'0 0.0
2015-May-23 11:32N 29°54' W 090°07'0 0.0
2015-May-23 10:30N 29°54' W 090°07'0 0.0
2015-May-23 09:33N 29°54' W 090°07'0 0.0
2015-May-23 08:33N 29°54' W 090°07'0 0.0
2015-May-23 07:33N 29°54' W 090°07'2 1.6
2015-May-23 06:32N 29°56' W 090°08'3 3.2
2015-May-23 05:33N 29°55' W 090°05'3 3.2
2015-May-23 04:33N 29°57' W 090°02'4 1.7
2015-May-23 02:26N 29°55' W 089°58'  
2015-May-19 15:33N 29°54' W 090°05'0 0.0
2015-May-19 13:33N 29°54' W 090°05'0 0.0
2015-May-19 12:07N 29°54' W 090°05'0 0.0
2015-May-19 11:32N 29°54' W 090°05'1 0.4
2015-May-19 09:16N 29°55' W 090°05'1 1.4
2015-May-19 08:32N 29°55' W 090°04'3 3.3
2015-May-19 07:29N 29°58' W 090°02'2 2.5
2015-May-19 06:32N 29°60' W 089°60'1 0.9
2015-May-19 05:26N 29°60' W 090°01'2 2.1
2015-May-19 04:30N 29°58' W 090°02'4 3.3
2015-May-19 03:10N 29°55' W 089°57'4 1.5
2015-May-19 00:31N 29°57' W 090°01'4 4.3
2015-May-18 23:32N 29°54' W 090°05'1 0.8
2015-May-18 22:33N 29°54' W 090°05'1 1.0
2015-May-18 21:33N 29°55' W 090°05'3 0.1
2015-May-17 19:13N 29°55' W 090°08'4 1.8
2015-May-17 17:12N 29°53' W 090°05'0 0.2
2015-May-17 15:15N 29°53' W 090°04'0 0.0
2015-May-17 14:09N 29°53' W 090°04'0 0.0
2015-May-17 13:33N 29°53' W 090°04'0 0.0
2015-May-17 12:07N 29°53' W 090°04'0 0.0
2015-May-17 11:16N 29°53' W 090°04'0 0.0
2015-May-17 09:26N 29°53' W 090°04'0 0.0
2015-May-17 08:26N 29°53' W 090°04'0 0.0
2015-May-17 07:29N 29°53' W 090°04'0 0.0
2015-May-17 06:32N 29°53' W 090°04'0 0.0
2015-May-17 05:23N 29°53' W 090°04'0 0.0
2015-May-17 04:30N 29°53' W 090°04'0 0.0
2015-May-17 03:19N 29°53' W 090°04'0 0.0
2015-May-17 02:28N 29°53' W 090°04'1 0.7
2015-May-17 01:32N 29°53' W 090°05'2 2.3
2015-May-17 00:33N 29°54' W 090°07'0 0.0
2015-May-16 23:31N 29°54' W 090°07'0 0.0
2015-May-16 22:30N 29°54' W 090°07'0 0.0
2015-May-16 21:30N 29°54' W 090°07'0 0.0
2015-May-16 20:23N 29°54' W 090°07'0 0.0
2015-May-16 19:32N 29°54' W 090°07'0 0.0
2015-May-16 18:33N 29°54' W 090°07'0 0.0
2015-May-16 17:27N 29°54' W 090°07'0 0.3
2015-May-16 16:28N 29°54' W 090°07'0 0.0
2015-May-16 15:27N 29°54' W 090°07'0 0.0
2015-May-16 14:31N 29°54' W 090°07'3 2.8
2015-May-16 13:18N 29°55' W 090°04'0 0.0
2015-May-16 12:32N 29°55' W 090°04'7 0.4
2015-May-15 19:10N 29°56' W 090°12'3 2.6
2015-May-15 18:03N 29°57' W 090°09'2 3.6
2015-May-15 17:31N 29°55' W 090°08'3 3.1
2015-May-15 16:32N 29°55' W 090°05'0 0.2
2015-May-15 15:31N 29°55' W 090°05'0 0.0
2015-May-15 14:31N 29°55' W 090°05'0 0.0
2015-May-15 13:32N 29°55' W 090°05'0 0.4
2015-May-15 12:19N 29°55' W 090°05'1 0.0
2015-May-14 13:24N 29°55' W 090°04'0 0.0
2015-May-14 12:26N 29°55' W 090°04'  
Track history (hours):
 
Tides and Currents Weather Stations Pressure Air Temp Water Temp Dewpoint Dewpoint Depression Visibility Wind Speed Wind Dir Waves Ship Positions

Jena Marie C.

Owner: Scott C. Marine Towing, LLC, Marrero, LA. More information available from US FCC via Universal Licensing System and Coast Guard Vessel Documentation Center.

Last reported at 2015-May-24 02:13 UTC. Time now 2015-May-24 05:11 UTC.
Position N 29°54' W 090°07'.

Length 19 m; draft 2.5 m.

Type: Towing. MMSI: 367151880.

Date/timePositionNaut miles runAvg speedWind from/ knotsBaromVisibWave heightAir tempDewpointWater temp
2015-May-24 02:13N 29°54' W 090°07'0 0.0
2015-May-24 01:07N 29°54' W 090°07'0 0.0
2015-May-24 00:32N 29°54' W 090°07'0 0.0
2015-May-23 23:15N 29°54' W 090°07'0 0.0
2015-May-23 22:16N 29°54' W 090°07'0 0.0
2015-May-23 21:13N 29°54' W 090°07'0 0.0
2015-May-23 20:33N 29°54' W 090°07'0 0.0
2015-May-23 19:28N 29°54' W 090°07'0 0.0
2015-May-23 18:22N 29°54' W 090°07'0 0.0
2015-May-23 17:33N 29°54' W 090°07'0 0.0
2015-May-23 16:33N 29°54' W 090°07'0 0.0
2015-May-23 15:33N 29°54' W 090°07'0 0.0
2015-May-23 14:30N 29°54' W 090°07'0 0.0
2015-May-23 13:26N 29°54' W 090°07'0 0.0
2015-May-23 12:30N 29°54' W 090°07'0 0.0
2015-May-23 11:32N 29°54' W 090°07'0 0.0
2015-May-23 10:30N 29°54' W 090°07'0 0.0
2015-May-23 09:33N 29°54' W 090°07'0 0.0
2015-May-23 08:33N 29°54' W 090°07'0 0.0
2015-May-23 07:33N 29°54' W 090°07'2 1.6
2015-May-23 06:32N 29°56' W 090°08'3 3.2
2015-May-23 05:33N 29°55' W 090°05'3 3.2
2015-May-23 04:33N 29°57' W 090°02'4 1.7
2015-May-23 02:26N 29°55' W 089°58'  
2015-May-19 15:33N 29°54' W 090°05'0 0.0
2015-May-19 13:33N 29°54' W 090°05'0 0.0
2015-May-19 12:07N 29°54' W 090°05'0 0.0
2015-May-19 11:32N 29°54' W 090°05'1 0.4
2015-May-19 09:16N 29°55' W 090°05'1 1.4
2015-May-19 08:32N 29°55' W 090°04'3 3.3
2015-May-19 07:29N 29°58' W 090°02'2 2.5
2015-May-19 06:32N 29°60' W 089°60'1 0.9
2015-May-19 05:26N 29°60' W 090°01'2 2.1
2015-May-19 04:30N 29°58' W 090°02'4 3.3
2015-May-19 03:10N 29°55' W 089°57'4 1.5
2015-May-19 00:31N 29°57' W 090°01'4 4.3
2015-May-18 23:32N 29°54' W 090°05'1 0.8
2015-May-18 22:33N 29°54' W 090°05'1 1.0
2015-May-18 21:33N 29°55' W 090°05'3 0.1
2015-May-17 19:13N 29°55' W 090°08'4 1.8
2015-May-17 17:12N 29°53' W 090°05'0 0.2
2015-May-17 15:15N 29°53' W 090°04'0 0.0
2015-May-17 14:09N 29°53' W 090°04'0 0.0
2015-May-17 13:33N 29°53' W 090°04'0 0.0
2015-May-17 12:07N 29°53' W 090°04'0 0.0
2015-May-17 11:16N 29°53' W 090°04'0 0.0
2015-May-17 09:26N 29°53' W 090°04'0 0.0
2015-May-17 08:26N 29°53' W 090°04'0 0.0
2015-May-17 07:29N 29°53' W 090°04'0 0.0
2015-May-17 06:32N 29°53' W 090°04'0 0.0
2015-May-17 05:23N 29°53' W 090°04'0 0.0
2015-May-17 04:30N 29°53' W 090°04'0 0.0
2015-May-17 03:19N 29°53' W 090°04'0 0.0
2015-May-17 02:28N 29°53' W 090°04'1 0.7
2015-May-17 01:32N 29°53' W 090°05'2 2.3
2015-May-17 00:33N 29°54' W 090°07'0 0.0
2015-May-16 23:31N 29°54' W 090°07'0 0.0
2015-May-16 22:30N 29°54' W 090°07'0 0.0
2015-May-16 21:30N 29°54' W 090°07'0 0.0
2015-May-16 20:23N 29°54' W 090°07'0 0.0
2015-May-16 19:32N 29°54' W 090°07'0 0.0
2015-May-16 18:33N 29°54' W 090°07'0 0.0
2015-May-16 17:27N 29°54' W 090°07'0 0.3
2015-May-16 16:28N 29°54' W 090°07'0 0.0
2015-May-16 15:27N 29°54' W 090°07'0 0.0
2015-May-16 14:31N 29°54' W 090°07'3 2.8
2015-May-16 13:18N 29°55' W 090°04'0 0.0
2015-May-16 12:32N 29°55' W 090°04'7 0.4
2015-May-15 19:10N 29°56' W 090°12'3 2.6
2015-May-15 18:03N 29°57' W 090°09'2 3.6
2015-May-15 17:31N 29°55' W 090°08'3 3.1
2015-May-15 16:32N 29°55' W 090°05'0 0.2
2015-May-15 15:31N 29°55' W 090°05'0 0.0
2015-May-15 14:31N 29°55' W 090°05'0 0.0
2015-May-15 13:32N 29°55' W 090°05'0 0.4
2015-May-15 12:19N 29°55' W 090°05'1 0.0
2015-May-14 13:24N 29°55' W 090°04'0 0.0
2015-May-14 12:26N 29°55' W 090°04'  

Dump ship's entire track history